KBIE/BIE METAR and TAF weather

Enter ICAO airport designator
Station Type Date Time Source
KBIE METAR 2024/04/18 06:35 UTC NOAA

KBIE 180635Z AUTO 06014G20KT 7SM +VCTSRA SCT041 SCT050 OVC080 11/09 A2989 RMK AO2 LTG DSNT ALQS P0005 T01100085


Station Type Date Time Source
KBIE Decoded METAR 2024/04/18 06:35 UTC NOAA

Beatrice Municipal, NE, United States (KBIE) 40-18N 096-45W
Apr 18, 2024 - 02:35 AM EDT / 2024.04.18 0635 UTC
Wind: from the ENE (060 degrees) at 16 MPH (14 KT) gusting to 23 MPH (20 KT):0
Visibility: 7 mile(s):0
Sky conditions: overcast
Weather: heavy rain with thunder in the vicinity; Lightning observed
Precipitation last hour: 0.05 inches
Temperature: 51.8 F (11.0 C)
Dew Point: 47.3 F (8.5 C)
Relative Humidity: 84%
Pressure (altimeter): 29.89 in. Hg (1012 hPa)
ob: KBIE 180635Z AUTO 06014G20KT 7SM +VCTSRA SCT041 SCT050 OVC080 11/09 A2989 RMK AO2 LTG DSNT ALQS P0005 T01100085
cycle: 6

Station Type Date Time Source
KBIE TAF UTC NOAA

Error!

Example: see airport list